Time;durP1;ratioP1;P1;durP2;ratioP2;P2;SDS_P1;SDS_P2;PMS_P1;PMS_P2;Temp;Humidity;BMP_temperature;BMP_pressure;BME280_temperature;BME280_humidity;BME280_pressure;Samples;Min_cycle;Max_cycle;Signal;HPM_P1;HPM_P2
2023/06/27 00:02:17;;;;;;;4.32;1.70;;;;;;;;;;5076090;28;20198;-72
2023/06/27 00:04:44;;;;;;;3.65;1.65;;;;;;;;;;5076459;28;20202;-73
2023/06/27 00:07:11;;;;;;;5.45;1.80;;;;;;;;;;5078067;28;20206;-73
2023/06/27 00:09:39;;;;;;;3.63;1.60;;;;;;;;;;5071699;28;20214;-73
2023/06/27 00:12:06;;;;;;;4.03;1.80;;;;;;;;;;5072391;28;20256;-75
2023/06/27 00:14:36;;;;;;;2.83;1.60;;;;;;;;;;5078509;28;20198;-76
2023/06/27 00:17:07;;;;;;;3.47;1.70;;;;;;;;;;5073256;28;20257;-74
2023/06/27 00:19:34;;;;;;;5.35;1.67;;;;;;;;;;5068476;28;20264;-75
2023/06/27 00:22:09;;;;;;;3.53;1.80;;;;;;;;;;5067977;28;20217;-73
2023/06/27 00:24:36;;;;;;;4.72;1.60;;;;;;;;;;5071960;28;20206;-74
2023/06/27 00:27:03;;;;;;;6.30;1.77;;;;;;;;;;5076108;28;20227;-73
2023/06/27 00:29:30;;;;;;;4.25;1.85;;;;;;;;;;5072395;28;20202;-74
2023/06/27 00:31:58;;;;;;;3.88;1.70;;;;;;;;;;5075317;28;20202;-73
2023/06/27 00:34:26;;;;;;;6.70;2.05;;;;;;;;;;5075885;28;20226;-73
2023/06/27 00:36:53;;;;;;;5.10;1.90;;;;;;;;;;5070509;28;20282;-73
2023/06/27 00:39:21;;;;;;;3.50;1.80;;;;;;;;;;5074554;28;20207;-73
2023/06/27 00:41:48;;;;;;;2.25;1.55;;;;;;;;;;5073514;28;20210;-73
2023/06/27 00:44:15;;;;;;;3.42;1.70;;;;;;;;;;5073494;28;20213;-73
2023/06/27 00:46:43;;;;;;;2.78;1.52;;;;;;;;;;5075903;28;20210;-73
2023/06/27 00:49:10;;;;;;;4.40;1.73;;;;;;;;;;5080125;28;20209;-73
2023/06/27 00:51:40;;;;;;;4.30;1.80;;;;;;;;;;5080908;28;20210;-73
2023/06/27 00:54:08;;;;;;;6.13;1.83;;;;;;;;;;5081284;28;20289;-73
2023/06/27 00:56:36;;;;;;;4.00;1.70;;;;;;;;;;5083738;28;20194;-73
2023/06/27 00:59:04;;;;;;;5.18;1.85;;;;;;;;;;5074792;28;20202;-73
2023/06/27 01:01:31;;;;;;;4.85;1.58;;;;;;;;;;5071887;28;20202;-67
2023/06/27 01:03:58;;;;;;;3.67;1.42;;;;;;;;;;5071871;28;20203;-68
2023/06/27 01:06:29;;;;;;;2.92;1.70;;;;;;;;;;5075331;28;20195;-68
2023/06/27 01:09:01;;;;;;;4.15;1.70;;;;;;;;;;5073884;28;20233;-68
2023/06/27 01:11:30;;;;;;;2.85;1.52;;;;;;;;;;5079817;28;20205;-72
2023/06/27 01:13:58;;;;;;;2.42;1.42;;;;;;;;;;5080354;28;20282;-72
2023/06/27 01:16:28;;;;;;;2.65;1.50;;;;;;;;;;5080175;28;20205;-72
2023/06/27 01:18:56;;;;;;;2.65;1.75;;;;;;;;;;5080304;28;20199;-72
2023/06/27 01:21:25;;;;;;;3.55;1.90;;;;;;;;;;5076136;28;20242;-72
2023/06/27 01:23:55;;;;;;;3.45;1.60;;;;;;;;;;5079306;28;20240;-72
2023/06/27 01:26:22;;;;;;;4.05;1.60;;;;;;;;;;5076060;28;20208;-72
2023/06/27 01:28:50;;;;;;;3.75;1.73;;;;;;;;;;5077433;28;20218;-72
2023/06/27 01:31:24;;;;;;;2.30;1.52;;;;;;;;;;5076972;28;20202;-72
2023/06/27 01:33:52;;;;;;;4.70;2.00;;;;;;;;;;5080522;28;20205;-72
2023/06/27 01:36:23;;;;;;;5.22;1.58;;;;;;;;;;5079428;28;20225;-72
2023/06/27 01:38:58;;;;;;;3.97;1.58;;;;;;;;;;5078317;28;20198;-72
2023/06/27 01:41:27;;;;;;;2.22;1.80;;;;;;;;;;5077165;28;20207;-72
2023/06/27 01:43:55;;;;;;;2.53;1.50;;;;;;;;;;5077577;28;20203;-72
2023/06/27 01:46:23;;;;;;;2.92;1.70;;;;;;;;;;5070932;28;20289;-73
2023/06/27 01:48:52;;;;;;;3.22;1.38;;;;;;;;;;5075943;28;20245;-72
2023/06/27 01:51:19;;;;;;;5.45;1.75;;;;;;;;;;5077324;28;20198;-72
2023/06/27 01:53:47;;;;;;;4.47;1.70;;;;;;;;;;5078636;28;20206;-72
2023/06/27 01:56:14;;;;;;;4.95;1.83;;;;;;;;;;5079053;28;20300;-72
2023/06/27 01:58:42;;;;;;;3.33;1.60;;;;;;;;;;5077733;28;20230;-72
2023/06/27 02:01:10;;;;;;;3.35;1.60;;;;;;;;;;5079037;28;20222;-72
2023/06/27 02:03:37;;;;;;;3.00;1.40;;;;;;;;;;5075838;28;20260;-72
2023/06/27 02:06:04;;;;;;;3.33;1.60;;;;;;;;;;5075458;28;20203;-72
2023/06/27 02:08:31;;;;;;;5.50;1.75;;;;;;;;;;5078276;28;20215;-72
2023/06/27 02:10:58;;;;;;;2.08;1.60;;;;;;;;;;5069521;28;20202;-72
2023/06/27 02:13:26;;;;;;;4.75;1.73;;;;;;;;;;5075869;28;20199;-72
2023/06/27 02:15:54;;;;;;;5.22;1.80;;;;;;;;;;5075109;28;20203;-72
2023/06/27 02:18:21;;;;;;;4.15;1.73;;;;;;;;;;5081513;28;20195;-72
2023/06/27 02:20:48;;;;;;;3.80;1.60;;;;;;;;;;5075489;28;20202;-72
2023/06/27 02:23:16;;;;;;;4.28;1.52;;;;;;;;;;5075976;28;20199;-72
2023/06/27 02:25:43;;;;;;;3.40;1.50;;;;;;;;;;5078608;28;20207;-72
2023/06/27 02:28:10;;;;;;;2.35;1.45;;;;;;;;;;5075946;28;20268;-72
2023/06/27 02:30:37;;;;;;;2.72;1.50;;;;;;;;;;5076069;28;20202;-73
2023/06/27 02:33:06;;;;;;;3.25;1.60;;;;;;;;;;5074781;28;20205;-73
2023/06/27 02:35:33;;;;;;;2.90;1.60;;;;;;;;;;5071581;28;20227;-71
2023/06/27 02:38:00;;;;;;;2.58;1.50;;;;;;;;;;5075836;28;20206;-73
2023/06/27 02:40:28;;;;;;;4.85;1.85;;;;;;;;;;5075961;28;20199;-73
2023/06/27 02:42:55;;;;;;;5.00;1.50;;;;;;;;;;5079030;28;20207;-74
2023/06/27 02:45:23;;;;;;;2.33;1.58;;;;;;;;;;5078008;28;20214;-73
2023/06/27 02:47:51;;;;;;;3.83;1.63;;;;;;;;;;5073986;28;20223;-74
2023/06/27 02:50:19;;;;;;;3.95;1.38;;;;;;;;;;5078314;28;20207;-73
2023/06/27 02:52:46;;;;;;;3.47;1.58;;;;;;;;;;5075966;28;20216;-73
2023/06/27 02:55:14;;;;;;;2.58;1.33;;;;;;;;;;5077329;28;20199;-73
2023/06/27 02:57:41;;;;;;;2.10;1.50;;;;;;;;;;5077478;28;20209;-73
2023/06/27 03:00:09;;;;;;;3.63;1.60;;;;;;;;;;5072071;28;20205;-73
2023/06/27 03:02:37;;;;;;;2.97;1.63;;;;;;;;;;5073544;28;20195;-73
2023/06/27 03:05:04;;;;;;;3.53;1.38;;;;;;;;;;5074439;28;20213;-73
2023/06/27 03:07:32;;;;;;;2.85;1.77;;;;;;;;;;5079476;28;20205;-73
2023/06/27 03:10:00;;;;;;;2.40;1.60;;;;;;;;;;5073614;28;20199;-73
2023/06/27 03:12:27;;;;;;;4.13;1.50;;;;;;;;;;5079004;28;20194;-72
2023/06/27 03:14:54;;;;;;;1.80;1.45;;;;;;;;;;5079301;28;20205;-72
2023/06/27 03:17:21;;;;;;;2.72;1.45;;;;;;;;;;5076673;28;20198;-72
2023/06/27 03:19:48;;;;;;;3.80;1.65;;;;;;;;;;5074148;28;20241;-72
2023/06/27 03:22:15;;;;;;;2.85;1.50;;;;;;;;;;5074718;28;20202;-72
2023/06/27 03:24:44;;;;;;;3.20;1.63;;;;;;;;;;5070247;28;20205;-72
2023/06/27 03:27:13;;;;;;;3.13;1.70;;;;;;;;;;5074137;28;20349;-72
2023/06/27 03:29:40;;;;;;;2.80;1.50;;;;;;;;;;5075793;28;20269;-72
2023/06/27 03:32:08;;;;;;;2.03;1.50;;;;;;;;;;5069014;28;20195;-72
2023/06/27 03:34:38;;;;;;;4.47;2.00;;;;;;;;;;5075998;28;20231;-72
2023/06/27 03:37:05;;;;;;;3.95;1.60;;;;;;;;;;5072099;28;20257;-72
2023/06/27 03:39:33;;;;;;;3.35;1.60;;;;;;;;;;5070324;28;20201;-73
2023/06/27 03:42:01;;;;;;;4.07;1.67;;;;;;;;;;5070500;28;20213;-72
2023/06/27 03:44:29;;;;;;;3.17;1.52;;;;;;;;;;5083399;28;20232;-72
2023/06/27 03:46:56;;;;;;;2.17;1.40;;;;;;;;;;5077111;28;20210;-72
2023/06/27 03:49:23;;;;;;;3.42;1.60;;;;;;;;;;5069622;28;20221;-72
2023/06/27 03:51:50;;;;;;;2.67;1.70;;;;;;;;;;5072768;28;20206;-72
2023/06/27 03:54:17;;;;;;;4.32;1.80;;;;;;;;;;5075805;28;20218;-72
2023/06/27 03:56:44;;;;;;;3.58;1.77;;;;;;;;;;5074445;28;20210;-72
2023/06/27 03:59:13;;;;;;;3.10;1.52;;;;;;;;;;5075166;28;20201;-72
2023/06/27 04:01:41;;;;;;;5.18;2.00;;;;;;;;;;5073281;28;20209;-72
2023/06/27 04:04:08;;;;;;;3.85;1.60;;;;;;;;;;5069343;28;20302;-72
2023/06/27 04:06:35;;;;;;;1.92;1.45;;;;;;;;;;5071729;28;20202;-72
2023/06/27 04:09:03;;;;;;;2.38;1.40;;;;;;;;;;5078380;28;20280;-72
2023/06/27 04:11:31;;;;;;;2.83;1.63;;;;;;;;;;5077944;28;20203;-72
2023/06/27 04:13:59;;;;;;;2.88;1.73;;;;;;;;;;5075402;28;20206;-72
2023/06/27 04:16:27;;;;;;;3.78;1.85;;;;;;;;;;5079517;28;20237;-73
2023/06/27 04:18:55;;;;;;;4.82;1.70;;;;;;;;;;5073915;28;20195;-73
2023/06/27 04:21:22;;;;;;;2.15;1.70;;;;;;;;;;5074057;28;20195;-74
2023/06/27 04:23:50;;;;;;;2.53;1.52;;;;;;;;;;5077573;28;20207;-73
2023/06/27 04:26:18;;;;;;;3.25;1.60;;;;;;;;;;5076938;28;20198;-73
2023/06/27 04:28:47;;;;;;;4.40;2.05;;;;;;;;;;5082450;28;20229;-72
2023/06/27 04:31:14;;;;;;;3.13;1.83;;;;;;;;;;5079696;28;20285;-72
2023/06/27 04:33:43;;;;;;;5.45;1.90;;;;;;;;;;5071043;28;20206;-72
2023/06/27 04:36:15;;;;;;;2.92;1.60;;;;;;;;;;5077173;28;20256;-73
2023/06/27 04:38:43;;;;;;;3.53;1.65;;;;;;;;;;5078148;28;20385;-73
2023/06/27 04:41:11;;;;;;;3.65;1.80;;;;;;;;;;5075341;28;20210;-73
2023/06/27 04:43:39;;;;;;;3.85;1.70;;;;;;;;;;5076077;28;20211;-73
2023/06/27 04:46:06;;;;;;;3.00;1.80;;;;;;;;;;5071589;28;20207;-73
2023/06/27 04:48:33;;;;;;;3.50;1.80;;;;;;;;;;5078293;28;20214;-73
2023/06/27 04:51:02;;;;;;;5.47;1.88;;;;;;;;;;5078613;28;20217;-73
2023/06/27 04:53:29;;;;;;;4.60;1.80;;;;;;;;;;5076260;28;20202;-73
2023/06/27 04:55:56;;;;;;;2.75;1.77;;;;;;;;;;5075210;28;20289;-72
2023/06/27 04:58:23;;;;;;;3.78;1.60;;;;;;;;;;5080503;28;20209;-72
2023/06/27 05:00:51;;;;;;;2.88;1.50;;;;;;;;;;5078599;28;20208;-72
2023/06/27 05:03:18;;;;;;;4.18;1.50;;;;;;;;;;5079745;28;20207;-72
2023/06/27 05:05:46;;;;;;;4.85;1.70;;;;;;;;;;5082899;28;20213;-72
2023/06/27 05:08:14;;;;;;;2.95;1.88;;;;;;;;;;5081842;28;20203;-72
2023/06/27 05:10:41;;;;;;;3.55;1.50;;;;;;;;;;5082596;28;20214;-72
2023/06/27 05:13:09;;;;;;;2.83;1.60;;;;;;;;;;5075875;28;20203;-72
2023/06/27 05:15:36;;;;;;;5.38;2.00;;;;;;;;;;5080204;28;20206;-72
2023/06/27 05:18:21;;;;;;;2.15;1.65;;;;;;;;;;5076554;28;20195;-72
2023/06/27 05:20:48;;;;;;;3.13;1.67;;;;;;;;;;5077025;28;20217;-72
2023/06/27 05:23:17;;;;;;;6.53;1.75;;;;;;;;;;5073466;28;20312;-72
2023/06/27 05:25:44;;;;;;;2.05;1.60;;;;;;;;;;5072259;28;20198;-72
2023/06/27 05:28:11;;;;;;;3.78;1.90;;;;;;;;;;5075721;28;20205;-68
2023/06/27 05:30:38;;;;;;;3.88;1.90;;;;;;;;;;5077573;28;20203;-72
2023/06/27 05:33:06;;;;;;;4.15;1.80;;;;;;;;;;5078378;28;20203;-73
2023/06/27 05:35:33;;;;;;;4.05;2.08;;;;;;;;;;5077865;28;20230;-72
2023/06/27 05:38:00;;;;;;;3.50;1.90;;;;;;;;;;5082423;28;20206;-72
2023/06/27 05:40:29;;;;;;;4.15;1.80;;;;;;;;;;5071212;28;20282;-73
2023/06/27 05:42:56;;;;;;;3.80;1.60;;;;;;;;;;5080873;28;20247;-72
2023/06/27 05:45:23;;;;;;;4.80;2.03;;;;;;;;;;5078174;28;20206;-73
2023/06/27 05:47:51;;;;;;;5.88;1.90;;;;;;;;;;5080696;28;20213;-73
2023/06/27 05:50:18;;;;;;;4.45;1.88;;;;;;;;;;5074812;28;20221;-73
2023/06/27 05:52:45;;;;;;;3.17;1.80;;;;;;;;;;5077306;28;20203;-73
2023/06/27 05:55:12;;;;;;;3.42;1.77;;;;;;;;;;5077479;28;20210;-73
2023/06/27 05:57:41;;;;;;;6.05;1.70;;;;;;;;;;5077605;28;20226;-73
2023/06/27 06:00:11;;;;;;;3.35;1.70;;;;;;;;;;5061631;28;20191;-72
2023/06/27 06:02:38;;;;;;;5.88;1.88;;;;;;;;;;5071989;28;20207;-73
2023/06/27 06:05:07;;;;;;;5.18;1.63;;;;;;;;;;5079705;28;20198;-73
2023/06/27 06:07:34;;;;;;;3.20;1.80;;;;;;;;;;5077169;28;20202;-73
2023/06/27 06:10:01;;;;;;;2.83;1.70;;;;;;;;;;5083003;28;20234;-73
2023/06/27 06:12:28;;;;;;;4.50;2.00;;;;;;;;;;5075954;28;20206;-73
2023/06/27 06:14:57;;;;;;;4.45;1.80;;;;;;;;;;5065983;28;20211;-73
2023/06/27 06:17:24;;;;;;;4.75;2.03;;;;;;;;;;5070702;28;20225;-73
2023/06/27 06:19:52;;;;;;;3.80;1.80;;;;;;;;;;5068954;28;20206;-74
2023/06/27 06:22:19;;;;;;;5.50;1.92;;;;;;;;;;5078574;28;20255;-73
2023/06/27 06:24:47;;;;;;;6.53;2.20;;;;;;;;;;5079846;28;20203;-74
2023/06/27 06:27:15;;;;;;;5.95;2.17;;;;;;;;;;5074272;28;20207;-74
2023/06/27 06:29:42;;;;;;;6.38;2.00;;;;;;;;;;5069430;28;20222;-74
2023/06/27 06:32:11;;;;;;;5.63;2.53;;;;;;;;;;5067035;28;20287;-74
2023/06/27 06:34:39;;;;;;;5.22;2.05;;;;;;;;;;5070432;28;20234;-74
2023/06/27 06:37:08;;;;;;;3.22;1.80;;;;;;;;;;5069865;28;20290;-74
2023/06/27 06:39:36;;;;;;;3.55;2.10;;;;;;;;;;5068051;28;20199;-74
2023/06/27 06:42:03;;;;;;;5.30;2.13;;;;;;;;;;5071363;28;20233;-74
2023/06/27 06:44:31;;;;;;;3.35;1.80;;;;;;;;;;5069440;28;20198;-74
2023/06/27 06:46:58;;;;;;;3.80;1.98;;;;;;;;;;5068770;28;20207;-73
2023/06/27 06:49:27;;;;;;;10.55;2.30;;;;;;;;;;5069680;28;20238;-74
2023/06/27 06:51:54;;;;;;;6.90;2.22;;;;;;;;;;5066599;28;20209;-74
2023/06/27 06:54:22;;;;;;;5.68;2.22;;;;;;;;;;5067430;28;20207;-74
2023/06/27 06:56:49;;;;;;;4.82;2.20;;;;;;;;;;5070635;28;20210;-74
2023/06/27 06:59:17;;;;;;;6.68;2.28;;;;;;;;;;5071245;28;20211;-74
2023/06/27 07:01:44;;;;;;;7.40;2.20;;;;;;;;;;5066532;28;20217;-74
2023/06/27 07:04:12;;;;;;;4.25;1.90;;;;;;;;;;5068704;28;20187;-73
2023/06/27 07:06:41;;;;;;;3.65;1.88;;;;;;;;;;5069391;28;20209;-74
2023/06/27 07:09:08;;;;;;;3.83;1.77;;;;;;;;;;5076001;28;20241;-73
2023/06/27 07:11:35;;;;;;;4.82;1.90;;;;;;;;;;5070412;28;20215;-74
2023/06/27 07:14:02;;;;;;;3.95;1.73;;;;;;;;;;5069154;28;20198;-73
2023/06/27 07:16:29;;;;;;;4.90;2.00;;;;;;;;;;5068605;28;20195;-73
2023/06/27 07:18:57;;;;;;;4.20;1.77;;;;;;;;;;5067489;28;20198;-74
2023/06/27 07:21:24;;;;;;;3.08;1.73;;;;;;;;;;5070282;28;20206;-73
2023/06/27 07:23:53;;;;;;;5.28;1.73;;;;;;;;;;5068522;28;20214;-73
2023/06/27 07:26:20;;;;;;;4.30;1.90;;;;;;;;;;5073531;28;20203;-73
2023/06/27 07:28:47;;;;;;;5.63;1.90;;;;;;;;;;5077517;28;20281;-73
2023/06/27 07:31:14;;;;;;;7.10;2.13;;;;;;;;;;5071613;28;20226;-73
2023/06/27 07:33:41;;;;;;;5.70;1.95;;;;;;;;;;5075485;28;20207;-72
2023/06/27 07:36:08;;;;;;;7.57;2.15;;;;;;;;;;5077848;28;20203;-73
2023/06/27 07:38:36;;;;;;;4.45;1.80;;;;;;;;;;5082355;28;20213;-73
2023/06/27 07:41:04;;;;;;;3.90;2.00;;;;;;;;;;5076198;28;20199;-73
2023/06/27 07:43:31;;;;;;;7.95;2.00;;;;;;;;;;5075227;28;20197;-72
2023/06/27 07:45:59;;;;;;;5.60;2.17;;;;;;;;;;5075508;28;20230;-72
2023/06/27 07:48:26;;;;;;;4.93;1.98;;;;;;;;;;5079125;28;20221;-73
2023/06/27 07:50:53;;;;;;;3.60;1.73;;;;;;;;;;5076893;28;20230;-73
2023/06/27 07:53:23;;;;;;;5.72;1.98;;;;;;;;;;5072224;28;20234;-72
2023/06/27 07:55:51;;;;;;;4.05;2.05;;;;;;;;;;5066900;28;20284;-72
2023/06/27 07:58:21;;;;;;;4.80;1.73;;;;;;;;;;5069688;28;20226;-72
2023/06/27 08:00:51;;;;;;;5.47;2.03;;;;;;;;;;5067813;28;20187;-72
2023/06/27 08:03:18;;;;;;;6.95;2.03;;;;;;;;;;5070811;28;20210;-72
2023/06/27 08:05:50;;;;;;;5.90;1.92;;;;;;;;;;5076289;28;20206;-72
2023/06/27 08:08:19;;;;;;;3.95;2.05;;;;;;;;;;5073715;28;20206;-72
2023/06/27 08:10:50;;;;;;;5.45;1.70;;;;;;;;;;5073450;28;20259;-72
2023/06/27 08:13:17;;;;;;;2.25;1.50;;;;;;;;;;5075611;28;20207;-72
2023/06/27 08:15:45;;;;;;;3.50;1.77;;;;;;;;;;5069059;28;20202;-72
2023/06/27 08:18:13;;;;;;;4.38;1.73;;;;;;;;;;5069604;28;20207;-72
2023/06/27 08:20:40;;;;;;;2.35;1.60;;;;;;;;;;5077542;28;20207;-72
2023/06/27 08:23:07;;;;;;;3.40;2.00;;;;;;;;;;5081192;28;20210;-72
2023/06/27 08:25:34;;;;;;;3.88;1.75;;;;;;;;;;5077204;28;20198;-71
2023/06/27 08:28:01;;;;;;;5.18;1.63;;;;;;;;;;5069604;28;20210;-72
2023/06/27 08:30:29;;;;;;;4.80;1.52;;;;;;;;;;5083218;28;20214;-72
2023/06/27 08:33:14;;;;;;;6.90;1.70;;;;;;;;;;5073889;28;20210;-72
2023/06/27 08:35:46;;;;;;;4.50;1.85;;;;;;;;;;5075931;28;20236;-72
2023/06/27 08:38:15;;;;;;;3.83;1.60;;;;;;;;;;5077247;28;20206;-72
2023/06/27 08:40:44;;;;;;;3.90;1.80;;;;;;;;;;5076725;28;20202;-72
2023/06/27 08:43:15;;;;;;;4.72;1.83;;;;;;;;;;5074815;28;20291;-72
2023/06/27 08:45:44;;;;;;;6.38;1.83;;;;;;;;;;5079146;28;20207;-72
2023/06/27 08:48:14;;;;;;;5.18;1.70;;;;;;;;;;5073286;28;20202;-72
2023/06/27 08:50:42;;;;;;;3.78;1.45;;;;;;;;;;5075785;28;20214;-72
2023/06/27 08:53:14;;;;;;;3.65;1.63;;;;;;;;;;5074881;28;20252;-72
2023/06/27 08:55:46;;;;;;;3.58;1.60;;;;;;;;;;5072831;28;20209;-72
2023/06/27 08:58:15;;;;;;;3.35;1.42;;;;;;;;;;5070069;28;20222;-72
2023/06/27 09:00:45;;;;;;;2.80;1.40;;;;;;;;;;5070164;28;20229;-72
2023/06/27 09:03:15;;;;;;;3.08;1.60;;;;;;;;;;5077189;28;20217;-72
2023/06/27 09:05:44;;;;;;;3.20;1.63;;;;;;;;;;5076620;28;20213;-72
2023/06/27 09:08:16;;;;;;;4.38;1.75;;;;;;;;;;5083211;28;20211;-72
2023/06/27 09:10:46;;;;;;;4.13;1.70;;;;;;;;;;5063694;28;20232;-72
2023/06/27 09:13:14;;;;;;;7.18;1.55;;;;;;;;;;5080238;28;20213;-72
2023/06/27 09:15:43;;;;;;;4.35;1.80;;;;;;;;;;5077517;28;20199;-73
2023/06/27 09:18:15;;;;;;;5.07;1.90;;;;;;;;;;5077189;28;20198;-72
2023/06/27 09:20:42;;;;;;;3.33;1.58;;;;;;;;;;5079769;28;20202;-72
2023/06/27 09:23:12;;;;;;;3.58;1.70;;;;;;;;;;5072774;28;20296;-72
2023/06/27 09:25:41;;;;;;;6.93;2.17;;;;;;;;;;5080239;28;20246;-73
2023/06/27 09:28:18;;;;;;;3.67;1.58;;;;;;;;;;5076702;28;20206;-72
2023/06/27 09:30:54;;;;;;;4.22;1.60;;;;;;;;;;5080543;28;20240;-72
2023/06/27 09:33:21;;;;;;;3.00;1.70;;;;;;;;;;5082447;28;20202;-73
2023/06/27 09:35:50;;;;;;;3.00;1.63;;;;;;;;;;5075398;28;20241;-72
2023/06/27 09:38:20;;;;;;;3.97;1.52;;;;;;;;;;5080159;28;20265;-72
2023/06/27 09:40:49;;;;;;;4.50;1.40;;;;;;;;;;5079725;28;20206;-72
2023/06/27 09:43:16;;;;;;;3.47;1.65;;;;;;;;;;5079567;28;20198;-72
2023/06/27 09:45:44;;;;;;;2.70;1.40;;;;;;;;;;5078728;28;20213;-73
2023/06/27 09:48:11;;;;;;;3.22;1.42;;;;;;;;;;5085312;28;20198;-73
2023/06/27 09:50:39;;;;;;;3.00;1.30;;;;;;;;;;5076242;28;20217;-72
2023/06/27 09:53:06;;;;;;;3.38;1.50;;;;;;;;;;5078323;28;20207;-73
2023/06/27 09:55:33;;;;;;;5.55;1.60;;;;;;;;;;5079677;28;20203;-72
2023/06/27 09:58:02;;;;;;;2.42;1.35;;;;;;;;;;5074197;28;20241;-72
2023/06/27 10:00:29;;;;;;;3.40;1.50;;;;;;;;;;5079700;28;20285;-72
2023/06/27 10:02:57;;;;;;;4.45;1.75;;;;;;;;;;5074355;28;20433;-72
2023/06/27 10:05:24;;;;;;;5.82;1.55;;;;;;;;;;5079374;28;20213;-72
2023/06/27 10:07:52;;;;;;;2.08;1.50;;;;;;;;;;5075772;28;20202;-72
2023/06/27 10:10:21;;;;;;;5.10;1.88;;;;;;;;;;5077452;28;20222;-72
2023/06/27 10:12:48;;;;;;;4.90;1.80;;;;;;;;;;5074114;28;20213;-72
2023/06/27 10:15:18;;;;;;;1.98;1.33;;;;;;;;;;5074431;28;20202;-72
2023/06/27 10:17:46;;;;;;;5.10;1.63;;;;;;;;;;5079440;28;20203;-71
2023/06/27 10:20:14;;;;;;;2.40;1.50;;;;;;;;;;5074100;28;20199;-72
2023/06/27 10:22:43;;;;;;;3.80;1.83;;;;;;;;;;5073894;28;20215;-72
2023/06/27 10:25:11;;;;;;;3.22;1.20;;;;;;;;;;5077180;28;20203;-73
2023/06/27 10:27:42;;;;;;;5.35;1.63;;;;;;;;;;5072457;28;20206;-72
2023/06/27 10:30:35;;;;;;;2.63;1.38;;;;;;;;;;5074811;28;20227;-71
2023/06/27 10:33:10;;;;;;;3.13;1.58;;;;;;;;;;5076684;28;20264;-72
2023/06/27 10:35:50;;;;;;;2.55;1.40;;;;;;;;;;5077862;28;20287;-72
2023/06/27 10:38:18;;;;;;;4.18;1.38;;;;;;;;;;5076594;28;20275;-71
2023/06/27 10:41:05;;;;;;;4.72;1.73;;;;;;;;;;5076784;28;20199;-71
2023/06/27 10:43:36;;;;;;;4.32;1.27;;;;;;;;;;5073837;28;20215;-72
2023/06/27 10:46:10;;;;;;;1.88;1.52;;;;;;;;;;5077277;28;20213;-73
2023/06/27 10:48:49;;;;;;;2.58;1.40;;;;;;;;;;5072704;28;20211;-73
2023/06/27 10:51:17;;;;;;;2.28;1.50;;;;;;;;;;5072051;28;20217;-73
2023/06/27 10:53:46;;;;;;;2.63;1.60;;;;;;;;;;5075333;28;20211;-73
2023/06/27 10:56:16;;;;;;;1.70;1.20;;;;;;;;;;5075883;28;20232;-72
2023/06/27 10:58:45;;;;;;;4.18;1.50;;;;;;;;;;5080943;28;20195;-72
2023/06/27 11:01:12;;;;;;;3.25;1.70;;;;;;;;;;5080805;28;20207;-72
2023/06/27 11:03:40;;;;;;;4.45;1.80;;;;;;;;;;5074934;28;20202;-73
2023/06/27 11:06:08;;;;;;;2.75;1.40;;;;;;;;;;5082473;28;20202;-71
2023/06/27 11:08:35;;;;;;;3.85;1.48;;;;;;;;;;5077932;28;20211;-72
2023/06/27 11:11:04;;;;;;;3.13;1.30;;;;;;;;;;5076977;28;20233;-72
2023/06/27 11:13:32;;;;;;;4.00;1.60;;;;;;;;;;5066710;28;20252;-72
2023/06/27 11:15:59;;;;;;;2.67;1.40;;;;;;;;;;5076887;28;20199;-73
2023/06/27 11:18:27;;;;;;;2.90;1.60;;;;;;;;;;5075033;28;20206;-73
2023/06/27 11:20:54;;;;;;;3.03;1.52;;;;;;;;;;5076698;28;20204;-72
2023/06/27 11:23:24;;;;;;;3.90;1.70;;;;;;;;;;5085194;28;20199;-72
2023/06/27 11:25:53;;;;;;;5.28;1.63;;;;;;;;;;5076961;28;20203;-72
2023/06/27 11:28:21;;;;;;;4.20;1.50;;;;;;;;;;5083177;28;20198;-72
2023/06/27 11:30:48;;;;;;;3.17;1.60;;;;;;;;;;5075923;28;20231;-72
2023/06/27 11:33:20;;;;;;;5.00;1.48;;;;;;;;;;5081376;28;20206;-73
2023/06/27 11:35:48;;;;;;;4.78;1.77;;;;;;;;;;5082474;28;20590;-72
2023/06/27 11:38:15;;;;;;;3.20;1.45;;;;;;;;;;5073759;28;20237;-73
2023/06/27 11:40:51;;;;;;;2.90;1.65;;;;;;;;;;5073910;28;20205;-72
2023/06/27 11:43:19;;;;;;;3.55;1.55;;;;;;;;;;5078900;28;20259;-72
2023/06/27 11:45:46;;;;;;;4.70;1.63;;;;;;;;;;5070056;28;20205;-72
2023/06/27 11:48:13;;;;;;;2.72;1.60;;;;;;;;;;5074818;28;20267;-73
2023/06/27 11:50:57;;;;;;;4.10;1.80;;;;;;;;;;5079330;28;20230;-72
2023/06/27 11:53:26;;;;;;;3.10;1.58;;;;;;;;;;5073628;28;20202;-72
2023/06/27 11:55:55;;;;;;;3.42;1.67;;;;;;;;;;5077658;28;20206;-72
2023/06/27 11:58:29;;;;;;;2.78;1.50;;;;;;;;;;5068113;28;20199;-72
2023/06/27 12:00:56;;;;;;;3.78;1.55;;;;;;;;;;5070744;28;20255;-73
2023/06/27 12:03:27;;;;;;;3.35;1.80;;;;;;;;;;5073365;28;20203;-72
2023/06/27 12:05:56;;;;;;;3.67;1.63;;;;;;;;;;5071789;28;20201;-72
2023/06/27 12:08:29;;;;;;;3.03;1.60;;;;;;;;;;5073540;28;20209;-72
2023/06/27 12:11:00;;;;;;;4.47;1.60;;;;;;;;;;5071533;28;20237;-73
2023/06/27 12:13:31;;;;;;;4.93;1.90;;;;;;;;;;5071432;28;20206;-72
2023/06/27 12:15:59;;;;;;;3.53;1.50;;;;;;;;;;5066772;28;20210;-73
2023/06/27 12:18:28;;;;;;;2.85;1.50;;;;;;;;;;5066901;28;20294;-72
2023/06/27 12:20:56;;;;;;;3.13;1.50;;;;;;;;;;5069947;28;20210;-72
2023/06/27 12:23:23;;;;;;;3.33;1.80;;;;;;;;;;5070056;28;20341;-73
2023/06/27 12:25:50;;;;;;;4.50;1.90;;;;;;;;;;5075712;28;20207;-73
2023/06/27 12:28:19;;;;;;;4.53;1.83;;;;;;;;;;5068668;28;20210;-73
2023/06/27 12:30:46;;;;;;;3.33;1.65;;;;;;;;;;5069228;28;20226;-72
2023/06/27 12:33:13;;;;;;;3.92;1.60;;;;;;;;;;5069606;28;20213;-73
2023/06/27 12:35:41;;;;;;;3.53;1.60;;;;;;;;;;5071127;28;20244;-72
2023/06/27 12:38:08;;;;;;;2.08;1.50;;;;;;;;;;5071728;28;20214;-72
2023/06/27 12:40:35;;;;;;;2.83;1.42;;;;;;;;;;5077299;28;20213;-71
2023/06/27 12:43:05;;;;;;;4.55;1.50;;;;;;;;;;5075657;28;20234;-72
2023/06/27 12:45:34;;;;;;;4.57;1.65;;;;;;;;;;5073869;28;20210;-72
2023/06/27 12:48:01;;;;;;;3.58;1.55;;;;;;;;;;5070038;28;20201;-72
2023/06/27 12:50:29;;;;;;;3.47;1.95;;;;;;;;;;5071672;28;20211;-74
2023/06/27 12:52:56;;;;;;;2.70;1.50;;;;;;;;;;5077280;28;20226;-75
2023/06/27 12:55:23;;;;;;;5.13;1.80;;;;;;;;;;5072833;28;20286;-75
2023/06/27 12:57:50;;;;;;;3.90;1.75;;;;;;;;;;5071576;28;20206;-74
2023/06/27 13:00:21;;;;;;;3.30;1.45;;;;;;;;;;5074324;28;20240;-73
2023/06/27 13:02:50;;;;;;;3.88;1.55;;;;;;;;;;5073904;28;20199;-72
2023/06/27 13:05:18;;;;;;;3.05;1.75;;;;;;;;;;5071950;28;20217;-73
2023/06/27 13:07:49;;;;;;;3.35;1.50;;;;;;;;;;5072041;28;20308;-73
2023/06/27 13:10:16;;;;;;;2.72;1.40;;;;;;;;;;5071823;28;20207;-72
2023/06/27 13:12:43;;;;;;;3.63;1.70;;;;;;;;;;5074657;28;20239;-73
2023/06/27 13:15:11;;;;;;;4.03;1.60;;;;;;;;;;5080314;28;20212;-72
2023/06/27 13:17:40;;;;;;;2.45;1.50;;;;;;;;;;5078822;28;20213;-73
2023/06/27 13:20:09;;;;;;;3.92;1.50;;;;;;;;;;5068070;28;20202;-74
2023/06/27 13:22:37;;;;;;;2.15;1.50;;;;;;;;;;5076063;28;20200;-73
2023/06/27 13:25:05;;;;;;;3.00;1.23;;;;;;;;;;5081610;28;20198;-74
2023/06/27 13:27:33;;;;;;;3.33;1.63;;;;;;;;;;5077359;28;20199;-73
2023/06/27 13:30:00;;;;;;;2.95;1.60;;;;;;;;;;5078931;28;20198;-71
2023/06/27 13:32:28;;;;;;;2.80;1.50;;;;;;;;;;5076528;28;20281;-71
2023/06/27 13:34:55;;;;;;;4.30;1.63;;;;;;;;;;5076455;28;20253;-71
2023/06/27 13:37:24;;;;;;;2.40;1.63;;;;;;;;;;5076953;28;20193;-71
2023/06/27 13:39:51;;;;;;;2.72;1.50;;;;;;;;;;5077924;28;20206;-70
2023/06/27 13:42:18;;;;;;;2.08;1.60;;;;;;;;;;5076710;28;20210;-70
2023/06/27 13:44:45;;;;;;;2.67;1.48;;;;;;;;;;5068453;28;20205;-72
2023/06/27 13:47:13;;;;;;;3.38;1.80;;;;;;;;;;5071785;28;20229;-73
2023/06/27 13:49:40;;;;;;;1.60;1.35;;;;;;;;;;5068644;28;20206;-73
2023/06/27 13:52:08;;;;;;;2.90;1.58;;;;;;;;;;5073302;28;20219;-72
2023/06/27 13:54:36;;;;;;;3.53;1.58;;;;;;;;;;5073775;28;20206;-72
2023/06/27 13:57:04;;;;;;;3.28;1.50;;;;;;;;;;5077672;28;20293;-74
2023/06/27 13:59:31;;;;;;;3.72;1.67;;;;;;;;;;5074778;28;20229;-73
2023/06/27 14:01:58;;;;;;;9.50;1.95;;;;;;;;;;5076517;28;20281;-73
2023/06/27 14:04:26;;;;;;;4.13;1.58;;;;;;;;;;5079314;28;20207;-72
2023/06/27 14:06:53;;;;;;;4.45;1.63;;;;;;;;;;5084404;28;20214;-73
2023/06/27 14:09:20;;;;;;;5.03;1.55;;;;;;;;;;5074845;28;20199;-72
2023/06/27 14:11:50;;;;;;;4.10;1.55;;;;;;;;;;5071476;28;20223;-72
2023/06/27 14:14:17;;;;;;;4.93;1.70;;;;;;;;;;5077216;28;20213;-72
2023/06/27 14:16:44;;;;;;;9.95;1.73;;;;;;;;;;5071497;28;20206;-72
2023/06/27 14:19:11;;;;;;;4.20;1.40;;;;;;;;;;5079084;28;20293;-72
2023/06/27 14:21:39;;;;;;;1.65;1.40;;;;;;;;;;5082609;28;20202;-72
2023/06/27 14:24:06;;;;;;;3.38;1.73;;;;;;;;;;5073720;28;20225;-73
2023/06/27 14:26:35;;;;;;;4.97;1.60;;;;;;;;;;5083395;28;20207;-72
2023/06/27 14:29:04;;;;;;;3.88;1.38;;;;;;;;;;5084454;28;20194;-72
2023/06/27 14:31:31;;;;;;;3.80;1.30;;;;;;;;;;5078495;28;20408;-72
2023/06/27 14:33:58;;;;;;;2.88;1.50;;;;;;;;;;5078596;28;20262;-71
2023/06/27 14:36:25;;;;;;;3.25;1.85;;;;;;;;;;5080691;28;20202;-72
2023/06/27 14:38:53;;;;;;;2.22;1.48;;;;;;;;;;5078451;28;20202;-73
2023/06/27 14:41:20;;;;;;;3.00;1.40;;;;;;;;;;5076864;28;20253;-73
2023/06/27 14:43:47;;;;;;;3.83;1.73;;;;;;;;;;5074553;28;20289;-73
2023/06/27 14:46:15;;;;;;;2.00;1.42;;;;;;;;;;5070552;28;20205;-72
2023/06/27 14:48:43;;;;;;;3.50;1.38;;;;;;;;;;5071305;28;20203;-73
2023/06/27 14:51:10;;;;;;;2.75;1.48;;;;;;;;;;5074089;28;20214;-72